Time;durP1;ratioP1;P1;durP2;ratioP2;P2;SDS_P1;SDS_P2;PMS_P1;PMS_P2;Temp;Humidity;BMP_temperature;BMP_pressure;BME280_temperature;BME280_humidity;BME280_pressure;Samples;Min_cycle;Max_cycle;Signal;HPM_P1;HPM_P2
2023/05/12 00:01:24;;;;;;;8.50;4.10;;;;;;;12.49;42.06;101080.15;111166;1211;99461;-63
2023/05/12 00:03:52;;;;;;;7.30;3.60;;;;;;;12.45;42.20;101079.06;111101;1205;138559;-63
2023/05/12 00:06:18;;;;;;;9.70;3.70;;;;;;;12.41;42.28;101077.98;111151;1211;112996;-63
2023/05/12 00:08:43;;;;;;;10.70;4.40;;;;;;;12.38;42.32;101078.84;111096;1206;138545;-63
2023/05/12 00:11:09;;;;;;;10.00;3.90;;;;;;;12.34;42.31;101075.98;111155;1206;99489;-64
2023/05/12 00:13:34;;;;;;;9.20;4.10;;;;;;;12.30;42.54;101075.27;111209;1206;98975;-63
2023/05/12 00:16:01;;;;;;;6.70;3.80;;;;;;;12.27;42.65;101071.79;110844;1209;138673;-63
2023/05/12 00:18:27;;;;;;;7.10;4.20;;;;;;;12.24;42.68;101078.56;111167;1206;99006;-63
2023/05/12 00:20:53;;;;;;;7.30;4.30;;;;;;;12.20;42.72;101077.66;111044;1205;138112;-63
2023/05/12 00:23:19;;;;;;;10.10;4.40;;;;;;;12.16;42.87;101076.95;111210;1206;98968;-63
2023/05/12 00:25:45;;;;;;;16.20;4.70;;;;;;;12.12;43.02;101081.04;111192;1206;98973;-63
2023/05/12 00:28:10;;;;;;;10.10;4.70;;;;;;;12.09;43.06;101082.10;111059;1206;138134;-63
2023/05/12 00:30:35;;;;;;;7.60;4.20;;;;;;;12.05;43.08;101082.61;111224;1211;98993;-62
2023/05/12 00:33:00;;;;;;;7.50;4.10;;;;;;;11.99;43.19;101079.79;111142;1211;138562;-63
2023/05/12 00:35:26;;;;;;;10.20;3.70;;;;;;;11.96;43.34;101082.10;111182;1206;101664;-62
2023/05/12 00:37:51;;;;;;;11.90;4.40;;;;;;;11.92;43.39;101080.63;111169;1206;98942;-63
2023/05/12 00:40:16;;;;;;;16.80;5.00;;;;;;;11.88;43.42;101079.56;111039;1211;139129;-63
2023/05/12 00:42:42;;;;;;;12.50;4.20;;;;;;;11.85;43.44;101081.67;111171;1210;99027;-62
2023/05/12 00:45:08;;;;;;;7.60;4.60;;;;;;;11.80;43.57;101079.36;111077;1205;138388;-63
2023/05/12 00:47:33;;;;;;;10.30;4.50;;;;;;;11.76;43.70;101085.79;111135;1210;99358;-62
2023/05/12 00:49:59;;;;;;;10.30;4.60;;;;;;;11.71;43.81;101080.40;110997;1211;139923;-64
2023/05/12 00:52:24;;;;;;;12.10;5.00;;;;;;;11.66;43.92;101078.99;111267;1206;99028;-63
2023/05/12 00:54:51;;;;;;;12.20;4.90;;;;;;;11.62;43.92;101080.42;111077;1211;99044;-63
2023/05/12 00:57:17;;;;;;;8.70;3.80;;;;;;;11.56;44.05;101079.60;110983;1206;139717;-62
2023/05/12 00:59:42;;;;;;;11.00;4.60;;;;;;;11.52;44.08;101083.72;111240;1210;99158;-63
2023/05/12 01:02:10;;;;;;;10.80;4.30;;;;;;;11.47;44.21;101082.30;110948;1205;140229;-62
2023/05/12 01:04:38;;;;;;;10.20;4.30;;;;;;;11.44;44.50;101084.59;111157;1206;98931;-62
2023/05/12 01:07:11;;;;;;;9.60;5.10;;;;;;;11.40;44.59;101088.64;111030;1206;98887;-62
2023/05/12 01:09:36;;;;;;;10.80;4.60;;;;;;;11.37;44.72;101089.30;110978;1205;140222;-62
2023/05/12 01:12:01;;;;;;;7.30;3.90;;;;;;;11.34;44.71;101092.47;111149;1206;99126;-62
2023/05/12 01:14:27;;;;;;;10.50;4.20;;;;;;;11.30;44.71;101096.20;111099;1211;138829;-62
2023/05/12 01:16:54;;;;;;;9.70;4.10;;;;;;;11.26;44.77;101094.21;111146;1211;98932;-62
2023/05/12 01:19:30;;;;;;;8.80;4.60;;;;;;;11.22;44.87;101095.09;111057;1206;97269;-62
2023/05/12 01:21:56;;;;;;;11.40;4.60;;;;;;;11.17;44.81;101093.67;110989;1206;138553;-62
2023/05/12 01:24:25;;;;;;;8.40;4.30;;;;;;;11.13;44.91;101092.40;111189;1206;99022;-62
2023/05/12 01:26:50;;;;;;;9.10;4.80;;;;;;;11.08;44.94;101094.02;111046;1210;138273;-61
2023/05/12 01:29:18;;;;;;;12.30;4.70;;;;;;;11.04;45.12;101090.95;111102;1211;99040;-61
2023/05/12 01:31:43;;;;;;;15.50;4.70;;;;;;;11.00;45.13;101090.75;111343;1207;99051;-62
2023/05/12 01:34:17;;;;;;;10.80;4.90;;;;;;;10.98;45.31;101095.84;111118;1205;138169;-62
2023/05/12 01:36:43;;;;;;;10.80;4.10;;;;;;;10.95;45.40;101092.73;111225;1206;107520;-61
2023/05/12 01:39:09;;;;;;;14.40;4.60;;;;;;;10.93;45.39;101095.67;111039;1206;138632;-62
2023/05/12 01:41:34;;;;;;;9.30;4.20;;;;;;;10.91;45.50;101095.75;111215;1211;98997;-61
2023/05/12 01:44:00;;;;;;;11.20;4.40;;;;;;;10.89;45.57;101100.13;111009;1211;138889;-62
2023/05/12 01:46:25;;;;;;;9.40;4.10;;;;;;;10.85;45.66;101097.93;111155;1211;100487;-61
2023/05/12 01:48:50;;;;;;;11.20;4.30;;;;;;;10.83;45.78;101103.02;111260;1206;98947;-61
2023/05/12 01:51:16;;;;;;;12.60;4.80;;;;;;;10.79;45.65;101099.95;111038;1209;138795;-61
2023/05/12 01:53:41;;;;;;;7.40;4.40;;;;;;;10.77;45.81;101108.45;111205;1206;99034;-61
2023/05/12 01:56:06;;;;;;;8.80;3.80;;;;;;;10.73;45.92;101107.48;110994;1210;138081;-61
2023/05/12 01:58:32;;;;;;;9.50;4.50;;;;;;;10.71;45.98;101106.84;111245;1205;99024;-61
2023/05/12 02:00:57;;;;;;;10.50;4.70;;;;;;;10.67;46.01;101109.69;111240;1206;99053;-64
2023/05/12 02:03:22;;;;;;;10.60;4.50;;;;;;;10.64;46.03;101110.33;111036;1211;138795;-62
2023/05/12 02:05:47;;;;;;;11.90;4.20;;;;;;;10.62;46.28;101111.10;111293;1205;99028;-62
2023/05/12 02:08:13;;;;;;;8.90;4.60;;;;;;;10.60;46.37;101112.96;111064;1206;138880;-61
2023/05/12 02:10:38;;;;;;;15.80;5.00;;;;;;;10.58;46.47;101111.06;111267;1206;98997;-62
2023/05/12 02:13:03;;;;;;;13.90;5.40;;;;;;;10.56;46.55;101114.02;111166;1211;99035;-62
2023/05/12 02:15:28;;;;;;;8.40;4.40;;;;;;;10.52;46.53;101116.28;111055;1206;138398;-62
2023/05/12 02:17:54;;;;;;;10.00;5.10;;;;;;;10.50;46.61;101118.52;111222;1206;99036;-61
2023/05/12 02:20:19;;;;;;;13.70;4.60;;;;;;;10.48;46.78;101117.35;111007;1205;139605;-62
2023/05/12 02:22:44;;;;;;;8.00;4.50;;;;;;;10.47;46.65;101121.66;111247;1206;99194;-61
2023/05/12 02:25:10;;;;;;;9.50;4.70;;;;;;;10.43;46.78;101123.06;111087;1205;98939;-62
2023/05/12 02:27:35;;;;;;;10.90;4.60;;;;;;;10.40;46.87;101123.34;111035;1210;140156;-62
2023/05/12 02:30:00;;;;;;;16.10;4.90;;;;;;;10.38;46.95;101124.14;111226;1206;98968;-62
2023/05/12 02:32:27;;;;;;;8.90;4.60;;;;;;;10.36;47.00;101124.39;111092;1206;138477;-62
2023/05/12 02:34:55;;;;;;;8.80;4.40;;;;;;;10.34;47.07;101126.44;111127;1206;99126;-62
2023/05/12 02:37:20;;;;;;;7.70;4.20;;;;;;;10.32;47.05;101130.98;111229;1206;98980;-62
2023/05/12 02:39:45;;;;;;;9.90;4.70;;;;;;;10.29;47.17;101133.58;111189;1206;138629;-61
2023/05/12 02:42:10;;;;;;;18.20;5.30;;;;;;;10.27;47.26;101131.69;111279;1206;99050;-62
2023/05/12 02:44:35;;;;;;;12.10;5.30;;;;;;;10.24;47.23;101132.49;111198;1206;138423;-61
2023/05/12 02:47:01;;;;;;;9.70;4.10;;;;;;;10.21;47.36;101132.95;111117;1205;99390;-61
2023/05/12 02:49:26;;;;;;;12.30;4.40;;;;;;;10.18;47.44;101133.02;111198;1206;99031;-62
2023/05/12 02:51:51;;;;;;;8.00;4.20;;;;;;;10.16;47.45;101136.33;111177;1206;139750;-61
2023/05/12 02:54:17;;;;;;;9.90;4.70;;;;;;;10.14;47.50;101135.48;111191;1206;99017;-62
2023/05/12 02:56:42;;;;;;;10.30;4.40;;;;;;;10.12;47.66;101135.92;111092;1206;138307;-62
2023/05/12 02:59:07;;;;;;;12.70;5.20;;;;;;;10.09;47.72;101132.08;111089;1206;99066;-63
2023/05/12 03:01:33;;;;;;;7.50;4.00;;;;;;;10.06;47.77;101133.59;111248;1206;98558;-62
2023/05/12 03:03:58;;;;;;;8.10;4.70;;;;;;;10.04;47.84;101135.45;110943;1206;138755;-62
2023/05/12 03:06:23;;;;;;;7.80;4.30;;;;;;;10.03;47.83;101136.92;111208;1211;98922;-62
2023/05/12 03:08:49;;;;;;;13.50;5.20;;;;;;;10.01;48.01;101136.10;111153;1205;138095;-62
2023/05/12 03:11:14;;;;;;;11.10;4.60;;;;;;;10.00;47.95;101135.94;111174;1206;99047;-62
2023/05/12 03:13:39;;;;;;;11.40;4.80;;;;;;;9.98;48.12;101133.34;111212;1211;98931;-62
2023/05/12 03:16:05;;;;;;;10.60;5.10;;;;;;;9.96;48.13;101133.04;111062;1206;139206;-63
2023/05/12 03:18:30;;;;;;;12.60;5.10;;;;;;;9.94;48.17;101134.89;111123;1206;99049;-62
2023/05/12 03:20:55;;;;;;;12.20;4.90;;;;;;;9.92;48.25;101133.36;111032;1206;138539;-62
2023/05/12 03:23:21;;;;;;;14.30;5.20;;;;;;;9.90;48.28;101132.34;111119;1211;99038;-62
2023/05/12 03:25:46;;;;;;;9.70;4.40;;;;;;;9.90;48.34;101135.59;111268;1206;99043;-62
2023/05/12 03:28:11;;;;;;;12.40;4.80;;;;;;;9.89;48.42;101133.27;111003;1206;137763;-63
2023/05/12 03:30:37;;;;;;;12.80;4.50;;;;;;;9.89;48.51;101133.46;111197;1206;98227;-62
2023/05/12 03:33:02;;;;;;;13.40;5.30;;;;;;;9.89;48.51;101138.46;111107;1211;140838;-62
2023/05/12 03:35:28;;;;;;;13.20;5.00;;;;;;;9.89;48.48;101135.26;111124;1210;98993;-62
2023/05/12 03:37:53;;;;;;;9.50;4.90;;;;;;;9.90;48.52;101133.42;111187;1206;98973;-62
2023/05/12 03:40:18;;;;;;;11.70;4.60;;;;;;;9.91;48.64;101137.33;111025;1211;139958;-62
2023/05/12 03:42:44;;;;;;;12.70;5.00;;;;;;;9.91;48.72;101138.92;111259;1206;99008;-63
2023/05/12 03:45:11;;;;;;;10.50;4.40;;;;;;;9.91;48.75;101141.59;111133;1205;139576;-62
2023/05/12 03:47:37;;;;;;;10.60;5.10;;;;;;;9.91;48.86;101145.52;111191;1206;107422;-62
2023/05/12 03:50:03;;;;;;;16.30;4.90;;;;;;;9.91;48.79;101146.59;111114;1211;138205;-63
2023/05/12 03:52:28;;;;;;;13.30;5.20;;;;;;;9.91;48.89;101150.55;111368;1208;98973;-63
2023/05/12 03:54:53;;;;;;;13.00;5.30;;;;;;;9.91;48.87;101150.36;111198;1206;98993;-62
2023/05/12 03:57:20;;;;;;;13.60;5.30;;;;;;;9.91;48.92;101153.94;111137;1211;138771;-62
2023/05/12 03:59:45;;;;;;;7.50;4.30;;;;;;;9.92;48.99;101151.59;111176;1206;99039;-62
2023/05/12 04:02:11;;;;;;;7.70;4.40;;;;;;;9.93;49.13;101154.40;110979;1205;138198;-62
2023/05/12 04:04:37;;;;;;;13.70;5.10;;;;;;;9.94;49.24;101155.79;111205;1206;98975;-62
2023/05/12 04:07:02;;;;;;;11.30;4.70;;;;;;;9.94;49.27;101157.73;111264;1212;99009;-62
2023/05/12 04:09:31;;;;;;;9.10;4.50;;;;;;;9.95;49.29;101155.73;111060;1206;138177;-63
2023/05/12 04:11:57;;;;;;;12.50;4.30;;;;;;;9.96;49.26;101160.34;111193;1206;112977;-62
2023/05/12 04:14:26;;;;;;;11.00;4.30;;;;;;;9.98;49.36;101163.50;111135;1206;138331;-62
2023/05/12 04:16:51;;;;;;;19.80;4.60;;;;;;;10.01;49.45;101166.09;111165;1206;98992;-62
2023/05/12 04:19:16;;;;;;;9.80;4.90;;;;;;;10.03;49.42;101166.02;111279;1207;98925;-62
2023/05/12 04:21:42;;;;;;;9.30;4.90;;;;;;;10.05;49.50;101164.34;111128;1211;138171;-62
2023/05/12 04:24:07;;;;;;;8.80;5.00;;;;;;;10.06;49.55;101163.77;111265;1211;99043;-62
2023/05/12 04:26:38;;;;;;;8.70;4.90;;;;;;;10.08;49.59;101163.36;111115;1206;138778;-63
2023/05/12 04:29:03;;;;;;;13.80;5.00;;;;;;;10.11;49.61;101167.37;111276;1211;98937;-63
2023/05/12 04:31:29;;;;;;;13.70;5.20;;;;;;;10.15;49.65;101169.04;111344;1210;99137;-62
2023/05/12 04:33:54;;;;;;;10.30;5.10;;;;;;;10.18;49.67;101170.36;111101;1205;140030;-62
2023/05/12 04:36:22;;;;;;;13.90;5.30;;;;;;;10.21;49.72;101173.52;111174;1206;98888;-62
2023/05/12 04:38:47;;;;;;;10.40;4.90;;;;;;;10.23;49.72;101171.28;111077;1211;140718;-62
2023/05/12 04:41:12;;;;;;;9.60;4.70;;;;;;;10.28;49.91;101177.20;111217;1205;99035;-62
2023/05/12 04:43:38;;;;;;;14.60;5.00;;;;;;;10.31;49.79;101173.34;111163;1210;108205;-62
2023/05/12 04:46:04;;;;;;;12.90;5.30;;;;;;;10.34;49.88;101176.27;111065;1205;138310;-62
2023/05/12 04:48:30;;;;;;;10.40;4.80;;;;;;;10.38;49.88;101175.77;111160;1205;98955;-62
2023/05/12 04:50:58;;;;;;;11.50;5.90;;;;;;;10.43;49.89;101177.02;111061;1206;138317;-62
2023/05/12 04:53:23;;;;;;;16.00;5.10;;;;;;;10.49;49.96;101182.69;111291;1211;107453;-62
2023/05/12 04:55:50;;;;;;;13.80;5.40;;;;;;;10.55;49.83;101185.01;111142;1208;99049;-62
2023/05/12 04:58:15;;;;;;;11.40;5.50;;;;;;;10.61;49.96;101186.02;111085;1210;138745;-62
2023/05/12 05:00:40;;;;;;;12.50;5.20;;;;;;;10.66;49.97;101183.00;111021;1211;100176;-62
2023/05/12 05:03:05;;;;;;;16.70;5.80;;;;;;;10.70;49.92;101187.66;111037;1206;139779;-61
2023/05/12 05:05:31;;;;;;;9.50;4.90;;;;;;;10.74;49.92;101187.35;111302;1211;98999;-62
2023/05/12 05:07:56;;;;;;;12.80;5.80;;;;;;;10.80;49.89;101192.52;111193;1206;98922;-61
2023/05/12 05:10:22;;;;;;;11.30;5.30;;;;;;;10.87;49.90;101189.57;111153;1205;138553;-62
2023/05/12 05:12:47;;;;;;;9.10;4.70;;;;;;;10.95;49.89;101191.44;111155;1207;99014;-62
2023/05/12 05:15:12;;;;;;;15.20;5.50;;;;;;;11.02;49.99;101188.65;111074;1205;138495;-61
2023/05/12 05:17:38;;;;;;;10.00;5.00;;;;;;;11.10;49.93;101190.73;111152;1205;99045;-62
2023/05/12 05:20:03;;;;;;;12.80;5.20;;;;;;;11.16;49.95;101188.34;111065;1206;99005;-61
2023/05/12 05:22:28;;;;;;;11.50;4.40;;;;;;;11.24;50.00;101188.02;111093;1205;138548;-62
2023/05/12 05:24:54;;;;;;;14.30;4.50;;;;;;;11.31;49.88;101190.09;111119;1211;98938;-62
2023/05/12 05:27:19;;;;;;;8.80;4.80;;;;;;;11.38;49.80;101186.59;110873;1209;138880;-62
2023/05/12 05:29:45;;;;;;;15.30;4.80;;;;;;;11.45;49.88;101187.08;111118;1212;98991;-61
2023/05/12 05:32:10;;;;;;;10.40;4.60;;;;;;;11.51;49.69;101188.45;110941;1205;138932;-62
2023/05/12 05:34:35;;;;;;;13.50;5.40;;;;;;;11.57;49.83;101185.33;111349;1208;99028;-62
2023/05/12 05:37:01;;;;;;;8.50;4.20;;;;;;;11.65;49.78;101191.46;110984;1205;99029;-62
2023/05/12 05:39:29;;;;;;;10.80;4.80;;;;;;;11.74;49.69;101192.91;110883;1206;139117;-62
2023/05/12 05:41:55;;;;;;;11.00;4.20;;;;;;;11.83;49.58;101193.29;111112;1206;97544;-61
2023/05/12 05:44:20;;;;;;;11.00;4.70;;;;;;;11.92;49.68;101190.41;111010;1211;140834;-62
2023/05/12 05:46:45;;;;;;;10.10;4.50;;;;;;;11.99;49.56;101192.66;110991;1206;98917;-61
2023/05/12 05:49:10;;;;;;;15.90;5.00;;;;;;;12.07;49.53;101191.63;110993;1211;98985;-61
2023/05/12 05:51:36;;;;;;;13.20;4.30;;;;;;;12.14;49.54;101192.93;111070;1206;138819;-62
2023/05/12 05:54:01;;;;;;;20.60;8.10;;;;;;;12.21;49.50;101197.28;111098;1210;98952;-62
2023/05/12 05:56:26;;;;;;;12.30;5.40;;;;;;;12.29;49.43;101197.86;110933;1211;138852;-62
2023/05/12 05:58:52;;;;;;;10.70;4.30;;;;;;;12.35;49.27;101196.70;111004;1206;98944;-62
2023/05/12 06:01:17;;;;;;;19.90;4.90;;;;;;;12.42;49.24;101199.45;111076;1210;99068;-63
2023/05/12 06:03:45;;;;;;;15.00;4.30;;;;;;;12.51;49.21;101203.92;110946;1206;138661;-62
2023/05/12 06:06:12;;;;;;;16.80;4.90;;;;;;;12.59;49.18;101205.90;111170;1211;99044;-63
2023/05/12 06:08:40;;;;;;;7.60;4.10;;;;;;;12.67;49.10;101212.57;110940;1206;138276;-63
2023/05/12 06:11:05;;;;;;;10.60;4.20;;;;;;;12.73;48.96;101210.15;111075;1206;113034;-62
2023/05/12 06:13:32;;;;;;;12.70;4.50;;;;;;;12.80;48.92;101212.36;111048;1205;100286;-63
2023/05/12 06:15:57;;;;;;;9.10;4.40;;;;;;;12.88;48.94;101215.23;110928;1211;139101;-63
2023/05/12 06:18:22;;;;;;;16.60;4.80;;;;;;;12.96;48.90;101216.31;111043;1206;98923;-63
2023/05/12 06:20:48;;;;;;;14.70;5.00;;;;;;;13.05;48.89;101214.79;110978;1208;140746;-63
2023/05/12 06:23:13;;;;;;;15.10;5.30;;;;;;;13.13;48.71;101213.19;110960;1208;98919;-62
2023/05/12 06:25:38;;;;;;;14.40;4.80;;;;;;;13.20;48.72;101214.69;111001;1207;99027;-62
2023/05/12 06:28:04;;;;;;;11.90;4.90;;;;;;;13.28;48.62;101213.77;111044;1206;139531;-62
2023/05/12 06:30:29;;;;;;;19.60;4.30;;;;;;;13.39;48.53;101219.04;111102;1211;99700;-62
2023/05/12 06:32:54;;;;;;;11.20;4.70;;;;;;;13.52;48.44;101216.66;110960;1205;138462;-63
2023/05/12 06:35:20;;;;;;;10.40;4.90;;;;;;;13.59;48.39;101217.02;111181;1206;99067;-63
2023/05/12 06:37:49;;;;;;;12.50;4.90;;;;;;;13.67;48.30;101219.54;111154;1205;96561;-63
2023/05/12 06:40:15;;;;;;;9.10;4.60;;;;;;;13.74;48.24;101222.40;111150;1205;139218;-63
2023/05/12 06:42:41;;;;;;;11.40;4.90;;;;;;;13.84;48.22;101222.30;111222;1206;99034;-62
2023/05/12 06:45:07;;;;;;;9.20;4.10;;;;;;;13.91;48.10;101221.77;111093;1211;138347;-63
2023/05/12 06:47:32;;;;;;;11.70;4.10;;;;;;;14.00;48.02;101223.33;111229;1205;113486;-63
2023/05/12 06:49:57;;;;;;;11.30;4.20;;;;;;;14.09;47.94;101217.16;111055;1210;100606;-62
2023/05/12 06:52:22;;;;;;;10.80;4.80;;;;;;;14.18;47.96;101216.73;111054;1205;138303;-62
2023/05/12 06:54:49;;;;;;;12.50;4.10;;;;;;;14.27;47.90;101216.07;110799;1211;99358;-64
2023/05/12 06:57:14;;;;;;;11.40;4.60;;;;;;;14.37;47.79;101218.08;110843;1211;138409;-64
2023/05/12 06:59:39;;;;;;;10.90;3.70;;;;;;;14.49;47.74;101223.27;110888;1212;108029;-64
2023/05/12 07:02:04;;;;;;;9.40;3.90;;;;;;;14.59;47.68;101220.98;110958;1208;97608;-63
2023/05/12 07:04:29;;;;;;;8.30;3.40;;;;;;;14.70;47.62;101219.34;111122;1211;139127;-63
2023/05/12 07:06:55;;;;;;;14.70;4.70;;;;;;;14.81;47.44;101213.88;110849;1206;98910;-64
2023/05/12 07:09:21;;;;;;;8.00;3.60;;;;;;;14.93;47.41;101211.98;110812;1206;140304;-65
2023/05/12 07:11:46;;;;;;;15.70;4.00;;;;;;;15.06;47.27;101214.56;111114;1208;99040;-65
2023/05/12 07:14:12;;;;;;;5.30;3.70;;;;;;;15.16;47.16;101207.55;110943;1210;138315;-64
2023/05/12 07:16:37;;;;;;;12.70;3.50;;;;;;;15.27;47.11;101210.04;111256;1207;101009;-63
2023/05/12 07:19:04;;;;;;;10.10;3.80;;;;;;;15.41;47.02;101209.45;110987;1206;96452;-63
2023/05/12 07:21:30;;;;;;;12.20;4.10;;;;;;;15.53;46.77;101207.53;110978;1205;139084;-63
2023/05/12 07:23:55;;;;;;;10.30;3.50;;;;;;;15.64;46.58;101206.58;111127;1205;98925;-63
2023/05/12 07:26:23;;;;;;;8.00;3.20;;;;;;;15.72;46.56;101204.51;111080;1205;139138;-62
2023/05/12 07:28:48;;;;;;;12.60;3.80;;;;;;;15.79;46.42;101206.26;110975;1211;99127;-62
2023/05/12 07:31:14;;;;;;;10.80;3.80;;;;;;;15.86;46.38;101203.33;110993;1211;99016;-63
2023/05/12 07:33:40;;;;;;;10.20;3.80;;;;;;;15.95;46.08;101202.30;111045;1205;139864;-62
2023/05/12 07:36:07;;;;;;;10.90;3.90;;;;;;;16.04;46.02;101204.30;111072;1211;106885;-63
2023/05/12 07:38:33;;;;;;;7.50;3.10;;;;;;;16.12;45.81;101202.58;111245;1211;138656;-63
2023/05/12 07:40:59;;;;;;;9.50;3.60;;;;;;;16.19;45.58;101204.15;111309;1206;99033;-63
2023/05/12 07:43:24;;;;;;;10.90;2.90;;;;;;;16.25;45.51;101203.23;111170;1205;99034;-63
2023/05/12 07:45:50;;;;;;;14.30;3.30;;;;;;;16.35;45.52;101208.23;110927;1208;138320;-63
2023/05/12 07:48:15;;;;;;;15.20;3.40;;;;;;;16.45;45.14;101205.14;111043;1208;99104;-63
2023/05/12 07:50:41;;;;;;;9.80;3.80;;;;;;;16.52;45.03;101204.89;111136;1206;138824;-63
2023/05/12 07:53:07;;;;;;;17.00;3.10;;;;;;;16.60;44.93;101202.64;111130;1206;99146;-62
2023/05/12 07:55:32;;;;;;;9.80;3.30;;;;;;;16.68;44.63;101203.60;111000;1206;99035;-63
2023/05/12 07:57:58;;;;;;;13.50;4.50;;;;;;;16.74;44.60;101203.41;110976;1205;138292;-63
2023/05/12 08:00:24;;;;;;;14.60;3.40;;;;;;;16.81;44.44;101199.00;110997;1211;99020;-63
2023/05/12 08:02:50;;;;;;;10.80;3.20;;;;;;;16.89;44.31;101200.70;110974;1211;139407;-63
2023/05/12 08:05:15;;;;;;;6.80;3.30;;;;;;;16.97;44.18;101194.67;111149;1208;98894;-62
2023/05/12 08:07:42;;;;;;;20.10;3.40;;;;;;;17.04;43.88;101195.27;110948;1211;99085;-63
2023/05/12 08:10:10;;;;;;;11.60;3.30;;;;;;;17.11;43.64;101197.90;110881;1211;138964;-63
2023/05/12 08:12:35;;;;;;;15.00;3.40;;;;;;;17.16;43.35;101197.23;111003;1211;98919;-62
2023/05/12 08:15:01;;;;;;;22.40;3.90;;;;;;;17.21;43.16;101197.31;110974;1208;138294;-63
2023/05/12 08:17:26;;;;;;;9.40;3.20;;;;;;;17.27;43.20;101193.89;111044;1208;98935;-63
2023/05/12 08:19:51;;;;;;;8.60;3.00;;;;;;;17.31;42.87;101192.35;111037;1209;99146;-62
2023/05/12 08:22:17;;;;;;;8.10;2.90;;;;;;;17.35;42.60;101196.98;111035;1205;138081;-62
2023/05/12 08:24:42;;;;;;;11.10;3.10;;;;;;;17.39;42.44;101197.62;111025;1211;97739;-62
2023/05/12 08:27:07;;;;;;;22.60;3.10;;;;;;;17.45;42.34;101194.02;111005;1206;138813;-63
2023/05/12 08:29:33;;;;;;;11.70;2.90;;;;;;;17.51;42.35;101189.23;111108;1210;98994;-63
2023/05/12 08:31:58;;;;;;;16.10;3.30;;;;;;;17.61;42.24;101191.48;111043;1205;99452;-63
2023/05/12 08:34:24;;;;;;;17.50;3.30;;;;;;;17.70;41.98;101186.27;111147;1211;140435;-63
2023/05/12 08:36:53;;;;;;;7.20;2.80;;;;;;;17.75;41.77;101190.64;111176;1211;99006;-63
2023/05/12 08:39:19;;;;;;;11.60;3.20;;;;;;;17.78;41.39;101185.37;110933;1206;138357;-62
2023/05/12 08:42:01;;;;;;;30.30;3.50;;;;;;;17.82;41.40;101186.58;111319;1210;98932;-61
2023/05/12 08:44:28;;;;;;;14.50;2.70;;;;;;;17.85;41.18;101194.17;111072;1211;138885;-61
2023/05/12 08:46:55;;;;;;;7.50;2.40;;;;;;;17.88;40.89;101193.63;111141;1209;100559;-61
2023/05/12 08:49:23;;;;;;;4.30;2.50;;;;;;;17.92;40.68;101200.05;111182;1211;99029;-61
2023/05/12 08:51:53;;;;;;;5.70;2.50;;;;;;;17.98;40.55;101197.09;111029;1206;139877;-61
2023/05/12 08:54:20;;;;;;;14.30;3.10;;;;;;;18.04;40.37;101195.41;111168;1205;99477;-62
2023/05/12 08:56:55;;;;;;;15.80;3.00;;;;;;;18.12;40.07;101195.23;110660;1211;635543;-62
2023/05/12 08:59:22;;;;;;;10.10;2.70;;;;;;;18.12;39.90;101196.17;110863;1216;93643;-64
2023/05/12 09:01:48;;;;;;;14.50;2.70;;;;;;;18.16;39.55;101190.13;110903;1211;93915;-64
2023/05/12 09:04:17;;;;;;;14.60;2.90;;;;;;;18.22;39.46;101194.38;110580;1211;137761;-63
2023/05/12 09:06:43;;;;;;;28.60;4.10;;;;;;;18.26;39.03;101197.19;110849;1211;94005;-65
2023/05/12 09:09:11;;;;;;;10.50;2.00;;;;;;;18.28;38.75;101198.86;110811;1211;136741;-64
2023/05/12 09:11:37;;;;;;;11.20;2.50;;;;;;;18.30;38.61;101194.42;110837;1211;93949;-63
2023/05/12 09:14:07;;;;;;;9.40;2.00;;;;;;;18.34;38.52;101197.73;110798;1211;95451;-64
2023/05/12 09:16:36;;;;;;;7.30;2.40;;;;;;;18.42;38.34;101200.64;110784;1211;137849;-64
2023/05/12 09:19:02;;;;;;;7.10;2.90;;;;;;;18.47;38.12;101198.52;110756;1211;99479;-64
2023/05/12 09:21:27;;;;;;;7.90;1.90;;;;;;;18.50;38.05;101194.87;110774;1214;137618;-64
2023/05/12 09:24:06;;;;;;;5.50;2.10;;;;;;;18.54;37.79;101198.40;111023;1210;94986;-64
2023/05/12 09:26:50;;;;;;;17.00;2.20;;;;;;;18.54;37.54;101196.73;110921;1211;137993;-62
2023/05/12 09:29:16;;;;;;;9.70;2.50;;;;;;;18.59;37.55;101196.98;110867;1216;98848;-62
2023/05/12 09:31:50;;;;;;;3.70;2.30;;;;;;;18.64;37.59;101201.69;110908;1215;98631;-62
2023/05/12 09:34:16;;;;;;;11.20;2.40;;;;;;;18.70;37.38;101201.13;110773;1211;138456;-63
2023/05/12 09:36:41;;;;;;;9.00;2.70;;;;;;;18.75;37.34;101197.70;110981;1211;94871;-63
2023/05/12 09:39:08;;;;;;;15.10;2.90;;;;;;;18.78;37.17;101193.33;110765;1211;137423;-61
2023/05/12 09:41:38;;;;;;;7.40;2.40;;;;;;;18.77;37.01;101191.77;110842;1213;95036;-63
2023/05/12 09:44:04;;;;;;;9.50;2.40;;;;;;;18.78;36.81;101193.89;110847;1214;94050;-63
2023/05/12 09:46:29;;;;;;;22.10;3.20;;;;;;;18.84;36.82;101196.38;110794;1212;138434;-62
2023/05/12 09:48:58;;;;;;;12.30;2.60;;;;;;;18.93;36.94;101197.15;110870;1227;95329;-62
2023/05/12 09:51:25;;;;;;;9.10;2.20;;;;;;;19.02;36.97;101191.65;110685;1212;137251;-62
2023/05/12 09:53:51;;;;;;;5.20;2.30;;;;;;;19.09;36.99;101194.20;110945;1215;95023;-62
2023/05/12 09:56:18;;;;;;;2.80;2.20;;;;;;;19.14;36.69;101192.59;110788;1213;138014;-63
2023/05/12 09:58:46;;;;;;;5.10;3.00;;;;;;;19.15;36.66;101189.98;111097;1212;95370;-63
2023/05/12 10:01:14;;;;;;;4.70;1.80;;;;;;;19.19;36.60;101188.45;110945;1213;94868;-63
2023/05/12 10:03:47;;;;;;;7.70;2.30;;;;;;;19.24;36.48;101191.17;110610;1212;138279;-63
2023/05/12 10:06:24;;;;;;;5.30;1.80;;;;;;;19.28;36.39;101189.59;110607;1214;100706;-63
2023/05/12 10:09:02;;;;;;;11.00;2.50;;;;;;;19.30;36.25;101193.69;110442;1212;139091;-63
2023/05/12 10:11:28;;;;;;;11.40;2.40;;;;;;;19.37;36.24;101192.57;110456;1211;99427;-63
2023/05/12 10:13:55;;;;;;;10.10;2.80;;;;;;;19.47;36.11;101188.10;110228;1212;94873;-63
2023/05/12 10:16:22;;;;;;;11.20;2.50;;;;;;;19.55;36.05;101189.20;110391;1214;138895;-63
2023/05/12 10:18:49;;;;;;;7.10;2.80;;;;;;;19.59;35.82;101181.98;111357;1211;94893;-63
2023/05/12 10:21:17;;;;;;;5.30;2.40;;;;;;;19.65;35.80;101180.09;110298;1212;139012;-64
2023/05/12 10:23:43;;;;;;;10.60;2.80;;;;;;;19.68;35.50;101177.71;110354;1212;94899;-64
2023/05/12 10:26:10;;;;;;;15.00;2.60;;;;;;;19.69;35.40;101175.13;110602;1214;94182;-63
2023/05/12 10:28:36;;;;;;;8.70;3.00;;;;;;;19.76;35.39;101176.74;110843;1212;138688;-65
2023/05/12 10:31:04;;;;;;;7.00;2.60;;;;;;;19.84;35.22;101179.09;110714;1212;94390;-64
2023/05/12 10:33:29;;;;;;;7.80;2.30;;;;;;;19.91;35.11;101171.65;110443;1214;137028;-64
2023/05/12 10:35:56;;;;;;;5.10;2.10;;;;;;;19.97;35.01;101171.72;110525;1214;94888;-64
2023/05/12 10:38:21;;;;;;;11.00;2.40;;;;;;;20.08;34.90;101171.27;110360;1212;138024;-64
2023/05/12 10:40:59;;;;;;;6.10;2.00;;;;;;;20.21;34.79;101174.67;110531;1212;94986;-64
2023/05/12 10:43:47;;;;;;;6.30;2.20;;;;;;;20.21;34.24;101173.05;110804;1213;107908;-63
2023/05/12 10:46:18;;;;;;;7.20;2.10;;;;;;;20.18;34.18;101176.88;110822;1214;137599;-63
2023/05/12 10:49:06;;;;;;;4.20;2.10;;;;;;;20.27;34.12;101172.39;111002;1209;95104;-63
2023/05/12 10:51:53;;;;;;;10.40;2.50;;;;;;;20.39;33.98;101168.08;110791;1212;137090;-63
2023/05/12 10:54:24;;;;;;;9.70;2.40;;;;;;;20.48;33.91;101170.45;110927;1214;94991;-64
2023/05/12 10:56:51;;;;;;;11.00;3.10;;;;;;;20.58;33.98;101171.10;110702;1214;139054;-62
2023/05/12 10:59:22;;;;;;;11.60;2.40;;;;;;;20.66;33.78;101169.45;110797;1213;94932;-61
2023/05/12 11:01:59;;;;;;;5.30;2.20;;;;;;;20.75;33.67;101172.90;110766;1214;94935;-62
2023/05/12 11:04:54;;;;;;;5.30;1.90;;;;;;;20.78;33.55;101168.09;110791;1212;138230;-63
2023/05/12 11:07:26;;;;;;;10.60;2.60;;;;;;;20.81;33.51;101164.45;110629;1215;95016;-63